Flight Track Log - Related Links

Times and Time Zones

All times are in EST time to prevent confusion due to time zone crossing. See the EJA396 flight status page for this flight to view local times or setup timezone preferences in your user account.

Time Position Orientation Groundspeed Altitude Reporting Facility
EST Latitude Longitude Course Direction KTS MPH feet Rate Location/Type
Mon 05:43:07 PM 40.8981 -81.4819 246° West 186 214 3,600  Level Cleveland Center
Mon 05:44:09 PM 40.8661 -81.5750 246° West 227 261 7,900 2,613 Climbing Cleveland Center
Mon 05:45:11 PM 40.8381 -81.6592 246° West 244 281 9,000 1,403 Climbing Cleveland Center
Mon 05:46:13 PM 40.8200 -81.7506 255° West 263 303 10,800 3,387 Climbing Cleveland Center
Mon 05:47:15 PM 40.8264 -81.8522 275° West 271 312 16,000 4,512 Climbing Cleveland Center
Mon 05:48:18 PM 40.8528 -81.9531 289° West 297 342 20,200 3,936 Climbing Cleveland Center
Mon 05:49:20 PM 40.9175 -82.0328 317° Northwest 313 360 24,200 3,484 Climbing Cleveland Center
Mon 05:50:22 PM 40.9825 -82.1122 317° Northwest 314 361 27,400 2,758 Climbing Cleveland Center
Mon 05:51:24 PM 41.0489 -82.1942 317° Northwest 320 368 29,900 1,258 Climbing Cleveland Center
Mon 05:52:26 PM 41.1203 -82.2825 317° Northwest 340 391 30,000 48 Climbing Cleveland Center
Mon 05:53:28 PM 41.2003 -82.3817 317° Northwest 332 382 30,000  Level Cleveland Center
Mon 05:54:30 PM 41.2697 -82.4683 317° Northwest 337 388 30,000  Level Cleveland Center
Mon 05:55:32 PM 41.3442 -82.5608 317° Northwest 358 412 30,000  Level Cleveland Center
Mon 05:56:34 PM 41.4164 -82.6517 317° Northwest 353 406 30,000  Level Cleveland Center
Mon 05:57:36 PM 41.4889 -82.7431 317° Northwest 353 406 30,000  Level Cleveland Center
Mon 05:58:38 PM 41.5600 -82.8333 316° Northwest 350 403 30,000  Level Cleveland Center
Mon 05:59:40 PM 41.6303 -82.9233 316° Northwest 347 399 30,000  Level Cleveland Center
Mon 06:00:43 PM 41.7053 -83.0203 316° Northwest 354 407 30,000  Level Cleveland Center
Mon 06:01:45 PM 41.7756 -83.1097 317° Northwest 351 404 30,000  Level Cleveland Center
Mon 06:02:47 PM 41.8472 -83.2000 317° Northwest 354 407 30,000  Level Cleveland Center
Mon 06:03:49 PM 41.9292 -83.3053 316° Northwest 354 407 30,000  Level Cleveland Center
Mon 06:04:51 PM 42.0017 -83.3986 316° Northwest 356 410 30,000  Level Cleveland Center
Mon 06:05:53 PM 42.0736 -83.4928 316° Northwest 357 411 30,000  Level Cleveland Center
Mon 06:06:55 PM 42.1514 -83.5903 317° Northwest 359 413 30,000  Level Cleveland Center
Mon 06:07:57 PM 42.2239 -83.6858 316° Northwest 359 413 30,000  Level Cleveland Center
Mon 06:08:59 PM 42.2969 -83.7817 316° Northwest 362 417 30,000  Level Cleveland Center
Mon 06:10:01 PM 42.3692 -83.8775 316° Northwest 364 419 30,000  Level Cleveland Center
Mon 06:11:03 PM 42.4411 -83.9728 316° Northwest 361 415 30,000  Level Cleveland Center
Mon 06:12:05 PM 42.5281 -84.0881 316° Northwest 364 419 30,000  Level Cleveland Center
Mon 06:13:07 PM 42.6008 -84.1839 316° Northwest 365 420 30,000  Level Cleveland Center
Mon 06:14:09 PM 42.6736 -84.2797 316° Northwest 365 420 30,000  Level Cleveland Center
Mon 06:15:12 PM 42.7408 -84.3700 315° West 366 421 30,000  Level Cleveland Center
Mon 06:16:14 PM 42.8083 -84.5019 305° West 362 417 30,000  Level Cleveland Center
Mon 06:17:16 PM 42.8394 -84.6283 289° West 354 407 30,000  Level Cleveland Center
Mon 06:18:18 PM 42.8706 -84.7567 288° West 358 412 30,000  Level Cleveland Center
Mon 06:19:20 PM 42.9017 -84.8839 288° West 355 409 30,000  Level Cleveland Center
Mon 06:20:22 PM 42.9319 -85.0128 288° West 357 411 30,000  Level Cleveland Center
Mon 06:21:24 PM 42.9617 -85.1403 288° West 356 410 30,000  Level Cleveland Center
Mon 06:22:26 PM 42.9978 -85.2953 288° West 358 412 30,000  Level Cleveland Center
Mon 06:23:28 PM 43.0283 -85.4244 288° West 359 413 30,000  Level Cleveland Center
Mon 06:24:30 PM 43.0583 -85.5542 288° West 361 415 30,000 -484 Level Cleveland Center
Mon 06:25:32 PM 43.0892 -85.6869 288° West 367 422 29,000 -1,306 Descending Cleveland Center
Mon 06:26:34 PM 43.1244 -85.8447 287° West 378 435 27,300 -1,477 Descending Cleveland Center
Mon 06:27:42 PM 43.1556 -85.9825 287° West 376 433 25,800 -1,523 Descending Chicago Center
Mon 06:28:44 PM 43.1672 -86.1481 276° West 380 437 24,000 -871 Descending Chicago Center
Mon 06:29:46 PM 43.1661 -86.2850 269° West 368 423 24,000  Level Chicago Center
Mon 06:30:48 PM 43.1642 -86.4172 269° West 353 406 24,000 -439 Level Chicago Center
Mon 06:31:49 PM 43.1619 -86.5367 269° West 322 371 23,100 -976 Descending Chicago Center
Mon 06:32:51 PM 43.1603 -86.6528 269° West 309 356 22,000 -823 Descending Chicago Center
Mon 06:33:53 PM 43.1575 -86.7550 268° West 277 319 21,400 -581 Descending Chicago Center
Mon 06:34:55 PM 43.1553 -86.8714 269° West 258 297 20,800 -581 Descending Chicago Center
Mon 06:35:57 PM 43.1528 -86.9697 268° West 260 299 20,200 -532 Descending Chicago Center
Mon 06:36:59 PM 43.1517 -87.0667 269° West 256 295 19,700 -585 Descending Chicago Center
Mon 06:38:00 PM 43.1478 -87.1675 267° West 264 304 19,000 -829 Descending Chicago Center
Mon 06:39:02 PM 43.1461 -87.2694 269° West 267 307 18,000 -1,500 Descending Chicago Center
Mon 06:40:04 PM 43.1347 -87.3844 262° West 273 314 15,900 -1,984 Descending Chicago Center
Mon 06:41:06 PM 43.1022 -87.4719 243° Southwest 262 302 13,900 -1,935 Descending Chicago Center
Mon 06:42:08 PM 43.0711 -87.5597 244° Southwest 256 295 11,900 -1,951 Descending Chicago Center
Mon 06:43:09 PM 43.0400 -87.6456 244° Southwest 252 290 9,900 -1,951 Descending Chicago Center
Mon 06:44:11 PM 43.0183 -87.7314 251° West 246 283 7,900 -2,129 Descending Chicago Center
Mon 06:45:13 PM 43.0961 -87.7497 350° North 260 299 5,500 -1,887 Descending Chicago Center
Mon 06:46:15 PM 43.1656 -87.7317 11° North 258 297 4,000 -823 Descending Chicago Center
Mon 06:47:17 PM 43.2167 -87.7331 359° North 216 249 3,800 -488 Descending Chicago Center
Mon 06:48:18 PM 43.2250 -87.7964 280° West 184 212 3,000 -390 Descending Chicago Center
Mon 06:49:20 PM 43.2058 -87.8433 241° Southwest 178 205 3,000  Level Chicago Center
Mon 06:50:22 PM 43.1633 -87.8578 194° South 165 190 3,000  Level Chicago Center
Mon 06:51:24 PM 43.1192 -87.8661 188° South 162 186 3,000  Level Chicago Center
Mon 06:52:26 PM 43.0669 -87.8736 186° South 160 184 3,000 -293 Level Chicago Center
Mon 06:53:27 PM 43.0342 -87.8797 188° South 137 158 2,400 -537 Descending Chicago Center
Mon 06:54:29 PM 42.9986 -87.8850 186° South 125 144 1,900 -484 Descending Chicago Center
Mon 06:57:00 PM 42.9469 -87.8971 191° South  Level Estimated
Mon 07:04:00 PM 42.9469 -87.8971 191° South  Level Estimated

Login

Don't have an account? Register now (free) for customized features, flight alerts, and more!